Terminal Aerodrome Forecast
Issued by NWS

Home | Current Version | Previous Version | Text Only | Print | Product List | Glossary On
Versions: 1 2 3 4 5 6 7 8 9 10 11 12 13 14 15
552
FTUS45 KTFX 050537
TAFCTB
TAF
KCTB 050537Z 0506/0606 29009KT P6SM BKN120
     FM051600 VRB06KT P6SM SCT050 BKN100
     FM051900 35015KT P6SM VCSH SCT050 OVC080 PROB30 0519/0524 -TSRA
      BKN050CB
     FM060000 01018KT P6SM -SHRA SCT025 OVC040=

USA.gov is the U.S. government's official web portal to all federal, state and local government web resources and services.